sensor_id;sensor_type;location;lat;lon;timestamp;temperature;humidity
44559;DHT22;30270;40.238;18.256;2022-07-29T00:00:20;29.10;95.10
44559;DHT22;30270;40.238;18.256;2022-07-29T00:02:47;29.20;95.10
44559;DHT22;30270;40.238;18.256;2022-07-29T00:05:15;29.20;95.10
44559;DHT22;30270;40.238;18.256;2022-07-29T00:07:43;29.10;95.10
44559;DHT22;30270;40.238;18.256;2022-07-29T00:10:10;29.10;95.10
44559;DHT22;30270;40.238;18.256;2022-07-29T00:12:38;29.10;95.20
44559;DHT22;30270;40.238;18.256;2022-07-29T00:15:06;29.00;95.30
44559;DHT22;30270;40.238;18.256;2022-07-29T00:17:34;28.90;95.40
44559;DHT22;30270;40.238;18.256;2022-07-29T00:20:02;28.90;95.50
44559;DHT22;30270;40.238;18.256;2022-07-29T00:22:30;28.80;95.60
44559;DHT22;30270;40.238;18.256;2022-07-29T00:24:58;28.80;95.70
44559;DHT22;30270;40.238;18.256;2022-07-29T00:27:26;28.70;95.80
44559;DHT22;30270;40.238;18.256;2022-07-29T00:29:54;28.70;95.90
44559;DHT22;30270;40.238;18.256;2022-07-29T00:32:22;28.70;96.00
44559;DHT22;30270;40.238;18.256;2022-07-29T00:34:49;28.60;96.10
44559;DHT22;30270;40.238;18.256;2022-07-29T00:37:35;28.60;96.20
44559;DHT22;30270;40.238;18.256;2022-07-29T00:40:03;28.50;96.30
44559;DHT22;30270;40.238;18.256;2022-07-29T00:42:40;28.50;96.40
44559;DHT22;30270;40.238;18.256;2022-07-29T00:45:08;28.50;96.40
44559;DHT22;30270;40.238;18.256;2022-07-29T00:47:36;28.50;96.50
44559;DHT22;30270;40.238;18.256;2022-07-29T00:50:05;28.50;96.50
44559;DHT22;30270;40.238;18.256;2022-07-29T00:52:33;28.50;96.60
44559;DHT22;30270;40.238;18.256;2022-07-29T00:55:07;28.50;96.70
44559;DHT22;30270;40.238;18.256;2022-07-29T00:57:36;28.40;96.70
44559;DHT22;30270;40.238;18.256;2022-07-29T01:00:06;28.40;96.80
44559;DHT22;30270;40.238;18.256;2022-07-29T01:02:33;28.30;96.90
44559;DHT22;30270;40.238;18.256;2022-07-29T01:05:02;28.40;97.00
44559;DHT22;30270;40.238;18.256;2022-07-29T01:07:32;28.30;97.00
44559;DHT22;30270;40.238;18.256;2022-07-29T01:10:02;28.30;97.00
44559;DHT22;30270;40.238;18.256;2022-07-29T01:12:30;28.30;97.10
44559;DHT22;30270;40.238;18.256;2022-07-29T01:15:05;28.20;97.20
44559;DHT22;30270;40.238;18.256;2022-07-29T01:17:54;28.20;97.30
44559;DHT22;30270;40.238;18.256;2022-07-29T01:34:05;28.10;97.50
44559;DHT22;30270;40.238;18.256;2022-07-29T01:36:48;28.10;97.50
44559;DHT22;30270;40.238;18.256;2022-07-29T01:39:27;28.10;97.60
44559;DHT22;30270;40.238;18.256;2022-07-29T01:42:20;28.10;97.70
44559;DHT22;30270;40.238;18.256;2022-07-29T01:44:54;28.10;97.70
44559;DHT22;30270;40.238;18.256;2022-07-29T01:47:26;28.10;97.80
44559;DHT22;30270;40.238;18.256;2022-07-29T01:50:00;28.00;97.80
44559;DHT22;30270;40.238;18.256;2022-07-29T01:52:37;28.00;97.80
44559;DHT22;30270;40.238;18.256;2022-07-29T01:55:13;28.00;97.80
44559;DHT22;30270;40.238;18.256;2022-07-29T01:57:45;28.00;98.00
44559;DHT22;30270;40.238;18.256;2022-07-29T02:00:14;28.00;98.00
44559;DHT22;30270;40.238;18.256;2022-07-29T02:02:44;28.00;98.10
44559;DHT22;30270;40.238;18.256;2022-07-29T02:05:15;28.00;98.10
44559;DHT22;30270;40.238;18.256;2022-07-29T02:07:44;28.00;98.10
44559;DHT22;30270;40.238;18.256;2022-07-29T02:10:14;28.00;98.30
44559;DHT22;30270;40.238;18.256;2022-07-29T02:12:45;27.90;98.30
44559;DHT22;30270;40.238;18.256;2022-07-29T02:15:14;27.90;98.40
44559;DHT22;30270;40.238;18.256;2022-07-29T02:17:45;27.90;98.60
44559;DHT22;30270;40.238;18.256;2022-07-29T02:20:14;27.90;98.70
44559;DHT22;30270;40.238;18.256;2022-07-29T02:22:44;27.90;98.80
44559;DHT22;30270;40.238;18.256;2022-07-29T02:25:12;27.90;98.90
44559;DHT22;30270;40.238;18.256;2022-07-29T02:27:42;27.90;98.90
44559;DHT22;30270;40.238;18.256;2022-07-29T02:30:12;27.90;99.00
44559;DHT22;30270;40.238;18.256;2022-07-29T02:32:41;27.90;99.00
44559;DHT22;30270;40.238;18.256;2022-07-29T02:35:13;27.90;99.10
44559;DHT22;30270;40.238;18.256;2022-07-29T02:37:43;27.90;99.10
44559;DHT22;30270;40.238;18.256;2022-07-29T02:40:13;27.90;99.20
44559;DHT22;30270;40.238;18.256;2022-07-29T02:42:43;27.90;99.10
44559;DHT22;30270;40.238;18.256;2022-07-29T02:45:11;27.90;99.20
44559;DHT22;30270;40.238;18.256;2022-07-29T02:47:48;27.90;99.20
44559;DHT22;30270;40.238;18.256;2022-07-29T02:50:23;27.90;99.30
44559;DHT22;30270;40.238;18.256;2022-07-29T02:53:37;27.90;99.30
44559;DHT22;30270;40.238;18.256;2022-07-29T02:55:55;27.90;99.50
44559;DHT22;30270;40.238;18.256;2022-07-29T02:58:54;27.90;99.60
44559;DHT22;30270;40.238;18.256;2022-07-29T03:01:23;27.80;99.70
44559;DHT22;30270;40.238;18.256;2022-07-29T03:03:53;27.80;99.80
44559;DHT22;30270;40.238;18.256;2022-07-29T03:06:24;27.80;99.90
44559;DHT22;30270;40.238;18.256;2022-07-29T03:08:53;27.80;99.90
44559;DHT22;30270;40.238;18.256;2022-07-29T03:11:22;27.80;99.90
44559;DHT22;30270;40.238;18.256;2022-07-29T03:13:50;27.80;99.90
44559;DHT22;30270;40.238;18.256;2022-07-29T03:16:19;27.70;99.90
44559;DHT22;30270;40.238;18.256;2022-07-29T03:18:47;27.70;99.90
44559;DHT22;30270;40.238;18.256;2022-07-29T03:21:15;27.70;99.90
44559;DHT22;30270;40.238;18.256;2022-07-29T03:23:46;27.70;99.90
44559;DHT22;30270;40.238;18.256;2022-07-29T03:26:13;27.60;99.90
44559;DHT22;30270;40.238;18.256;2022-07-29T03:28:41;27.60;99.90
44559;DHT22;30270;40.238;18.256;2022-07-29T03:31:08;27.60;99.90
44559;DHT22;30270;40.238;18.256;2022-07-29T03:33:36;27.50;99.90
44559;DHT22;30270;40.238;18.256;2022-07-29T03:36:04;27.50;99.90
44559;DHT22;30270;40.238;18.256;2022-07-29T03:38:33;27.50;99.90
44559;DHT22;30270;40.238;18.256;2022-07-29T03:41:09;27.50;99.90
44559;DHT22;30270;40.238;18.256;2022-07-29T03:43:38;27.50;99.90
44559;DHT22;30270;40.238;18.256;2022-07-29T03:46:09;27.50;99.90
44559;DHT22;30270;40.238;18.256;2022-07-29T03:48:40;27.50;99.90
44559;DHT22;30270;40.238;18.256;2022-07-29T03:51:10;27.50;99.90
44559;DHT22;30270;40.238;18.256;2022-07-29T03:53:37;27.50;99.90
44559;DHT22;30270;40.238;18.256;2022-07-29T03:56:06;27.60;99.90
44559;DHT22;30270;40.238;18.256;2022-07-29T03:58:35;27.60;99.90
44559;DHT22;30270;40.238;18.256;2022-07-29T04:01:03;27.60;99.90
44559;DHT22;30270;40.238;18.256;2022-07-29T04:03:31;27.70;99.90
44559;DHT22;30270;40.238;18.256;2022-07-29T04:06:03;27.70;99.90
44559;DHT22;30270;40.238;18.256;2022-07-29T04:08:34;27.80;99.90
44559;DHT22;30270;40.238;18.256;2022-07-29T04:11:02;27.80;99.90
44559;DHT22;30270;40.238;18.256;2022-07-29T04:13:30;27.90;99.90
44559;DHT22;30270;40.238;18.256;2022-07-29T04:15:58;27.80;99.80
44559;DHT22;30270;40.238;18.256;2022-07-29T04:18:26;28.00;99.80
44559;DHT22;30270;40.238;18.256;2022-07-29T04:20:54;28.00;99.70
44559;DHT22;30270;40.238;18.256;2022-07-29T04:23:21;28.00;99.60
44559;DHT22;30270;40.238;18.256;2022-07-29T04:25:49;28.10;99.50
44559;DHT22;30270;40.238;18.256;2022-07-29T04:28:17;28.20;99.40
44559;DHT22;30270;40.238;18.256;2022-07-29T04:30:44;28.20;99.20
44559;DHT22;30270;40.238;18.256;2022-07-29T04:33:12;28.30;99.10
44559;DHT22;30270;40.238;18.256;2022-07-29T04:35:39;28.40;99.00
44559;DHT22;30270;40.238;18.256;2022-07-29T04:38:07;28.50;98.80
44559;DHT22;30270;40.238;18.256;2022-07-29T04:40:40;28.60;98.70
44559;DHT22;30270;40.238;18.256;2022-07-29T04:43:08;28.70;98.50
44559;DHT22;30270;40.238;18.256;2022-07-29T04:45:36;28.80;98.40
44559;DHT22;30270;40.238;18.256;2022-07-29T04:48:04;28.90;98.20
44559;DHT22;30270;40.238;18.256;2022-07-29T04:50:31;29.00;98.10
44559;DHT22;30270;40.238;18.256;2022-07-29T04:52:59;29.10;97.90
44559;DHT22;30270;40.238;18.256;2022-07-29T04:55:27;29.20;97.70
44559;DHT22;30270;40.238;18.256;2022-07-29T04:57:54;29.30;97.50
44559;DHT22;30270;40.238;18.256;2022-07-29T05:00:22;29.50;97.40
44559;DHT22;30270;40.238;18.256;2022-07-29T05:02:50;29.60;97.20
44559;DHT22;30270;40.238;18.256;2022-07-29T05:05:18;29.60;97.10
44559;DHT22;30270;40.238;18.256;2022-07-29T05:07:45;29.70;97.00
44559;DHT22;30270;40.238;18.256;2022-07-29T05:10:13;29.80;96.80
44559;DHT22;30270;40.238;18.256;2022-07-29T05:12:41;29.90;96.70
44559;DHT22;30270;40.238;18.256;2022-07-29T05:15:09;30.00;96.50
44559;DHT22;30270;40.238;18.256;2022-07-29T05:17:37;30.00;96.40
44559;DHT22;30270;40.238;18.256;2022-07-29T05:20:05;30.10;96.30
44559;DHT22;30270;40.238;18.256;2022-07-29T05:22:33;30.20;96.20
44559;DHT22;30270;40.238;18.256;2022-07-29T05:25:01;30.20;95.90
44559;DHT22;30270;40.238;18.256;2022-07-29T05:27:33;30.30;96.00
44559;DHT22;30270;40.238;18.256;2022-07-29T05:30:00;30.40;95.90
44559;DHT22;30270;40.238;18.256;2022-07-29T05:32:28;30.50;95.50
44559;DHT22;30270;40.238;18.256;2022-07-29T05:34:56;30.60;95.30
44559;DHT22;30270;40.238;18.256;2022-07-29T05:37:23;30.70;95.10
44559;DHT22;30270;40.238;18.256;2022-07-29T05:39:51;30.70;94.80
44559;DHT22;30270;40.238;18.256;2022-07-29T05:42:19;30.80;94.70
44559;DHT22;30270;40.238;18.256;2022-07-29T05:44:46;30.90;94.40
44559;DHT22;30270;40.238;18.256;2022-07-29T05:47:15;31.00;94.10
44559;DHT22;30270;40.238;18.256;2022-07-29T05:49:44;31.10;93.90
44559;DHT22;30270;40.238;18.256;2022-07-29T05:52:14;31.20;93.60
44559;DHT22;30270;40.238;18.256;2022-07-29T05:54:43;31.40;93.10
44559;DHT22;30270;40.238;18.256;2022-07-29T05:57:22;31.50;92.70
44559;DHT22;30270;40.238;18.256;2022-07-29T05:59:51;31.50;92.10
44559;DHT22;30270;40.238;18.256;2022-07-29T06:02:19;31.60;92.10
44559;DHT22;30270;40.238;18.256;2022-07-29T06:04:46;31.60;91.70
44559;DHT22;30270;40.238;18.256;2022-07-29T06:07:14;31.50;91.20
44559;DHT22;30270;40.238;18.256;2022-07-29T06:09:42;31.70;91.10
44559;DHT22;30270;40.238;18.256;2022-07-29T06:12:09;31.70;90.30
44559;DHT22;30270;40.238;18.256;2022-07-29T06:14:37;31.90;90.30
44559;DHT22;30270;40.238;18.256;2022-07-29T06:17:05;32.00;90.10
44559;DHT22;30270;40.238;18.256;2022-07-29T06:19:36;32.10;89.60
44559;DHT22;30270;40.238;18.256;2022-07-29T06:22:04;32.30;87.50
44559;DHT22;30270;40.238;18.256;2022-07-29T06:24:31;32.40;85.40
44559;DHT22;30270;40.238;18.256;2022-07-29T06:26:59;32.60;84.70
44559;DHT22;30270;40.238;18.256;2022-07-29T06:29:27;32.70;83.50
44559;DHT22;30270;40.238;18.256;2022-07-29T06:31:54;32.70;82.70
44559;DHT22;30270;40.238;18.256;2022-07-29T06:34:22;32.70;82.40
44559;DHT22;30270;40.238;18.256;2022-07-29T06:36:49;32.80;81.70
44559;DHT22;30270;40.238;18.256;2022-07-29T06:39:17;32.80;81.70
44559;DHT22;30270;40.238;18.256;2022-07-29T06:41:48;32.80;81.00
44559;DHT22;30270;40.238;18.256;2022-07-29T06:44:17;32.90;81.30
44559;DHT22;30270;40.238;18.256;2022-07-29T06:46:45;33.00;81.50
44559;DHT22;30270;40.238;18.256;2022-07-29T06:49:16;33.20;80.70
44559;DHT22;30270;40.238;18.256;2022-07-29T06:51:43;33.10;80.00
44559;DHT22;30270;40.238;18.256;2022-07-29T06:54:11;33.30;80.20
44559;DHT22;30270;40.238;18.256;2022-07-29T06:56:39;33.40;79.80
44559;DHT22;30270;40.238;18.256;2022-07-29T06:59:10;33.40;79.70
44559;DHT22;30270;40.238;18.256;2022-07-29T07:01:42;33.60;78.50
44559;DHT22;30270;40.238;18.256;2022-07-29T07:04:11;33.60;78.20
44559;DHT22;30270;40.238;18.256;2022-07-29T07:06:39;33.60;77.40
44559;DHT22;30270;40.238;18.256;2022-07-29T07:09:06;33.60;78.10
44559;DHT22;30270;40.238;18.256;2022-07-29T07:11:34;33.60;78.80
44559;DHT22;30270;40.238;18.256;2022-07-29T07:14:02;33.60;77.50
44559;DHT22;30270;40.238;18.256;2022-07-29T07:16:31;33.60;77.50
44559;DHT22;30270;40.238;18.256;2022-07-29T07:18:58;33.60;77.50
44559;DHT22;30270;40.238;18.256;2022-07-29T07:21:26;33.60;77.40
44559;DHT22;30270;40.238;18.256;2022-07-29T07:23:54;33.70;77.10
44559;DHT22;30270;40.238;18.256;2022-07-29T07:26:21;33.60;77.10
44559;DHT22;30270;40.238;18.256;2022-07-29T07:28:49;33.80;77.60
44559;DHT22;30270;40.238;18.256;2022-07-29T07:31:16;33.80;77.40
44559;DHT22;30270;40.238;18.256;2022-07-29T07:33:44;34.00;77.20
44559;DHT22;30270;40.238;18.256;2022-07-29T07:36:12;34.10;76.90
44559;DHT22;30270;40.238;18.256;2022-07-29T07:38:39;34.20;77.20
44559;DHT22;30270;40.238;18.256;2022-07-29T07:41:07;34.30;76.20
44559;DHT22;30270;40.238;18.256;2022-07-29T07:43:35;34.50;76.60
44559;DHT22;30270;40.238;18.256;2022-07-29T07:46:03;34.60;76.50
44559;DHT22;30270;40.238;18.256;2022-07-29T07:48:30;34.60;76.40
44559;DHT22;30270;40.238;18.256;2022-07-29T07:50:58;34.70;76.50
44559;DHT22;30270;40.238;18.256;2022-07-29T07:53:26;34.70;77.10
44559;DHT22;30270;40.238;18.256;2022-07-29T07:55:53;34.80;76.30
44559;DHT22;30270;40.238;18.256;2022-07-29T07:58:37;34.70;76.60
44559;DHT22;30270;40.238;18.256;2022-07-29T08:01:06;34.60;76.80
44559;DHT22;30270;40.238;18.256;2022-07-29T08:03:33;34.50;75.90
44559;DHT22;30270;40.238;18.256;2022-07-29T08:06:02;34.60;76.30
44559;DHT22;30270;40.238;18.256;2022-07-29T08:08:30;34.60;77.70
44559;DHT22;30270;40.238;18.256;2022-07-29T08:10:58;34.50;77.80
44559;DHT22;30270;40.238;18.256;2022-07-29T08:13:27;34.60;77.90
44559;DHT22;30270;40.238;18.256;2022-07-29T08:15:56;34.80;77.90
44559;DHT22;30270;40.238;18.256;2022-07-29T08:18:29;34.80;77.90
44559;DHT22;30270;40.238;18.256;2022-07-29T08:20:58;34.60;77.60
44559;DHT22;30270;40.238;18.256;2022-07-29T08:23:26;34.70;77.90
44559;DHT22;30270;40.238;18.256;2022-07-29T08:25:57;34.80;78.20
44559;DHT22;30270;40.238;18.256;2022-07-29T08:28:25;34.80;78.20
44559;DHT22;30270;40.238;18.256;2022-07-29T08:30:52;34.90;77.90
44559;DHT22;30270;40.238;18.256;2022-07-29T08:33:20;35.00;77.20
44559;DHT22;30270;40.238;18.256;2022-07-29T08:35:48;35.10;76.30
44559;DHT22;30270;40.238;18.256;2022-07-29T08:38:17;35.10;77.30
44559;DHT22;30270;40.238;18.256;2022-07-29T08:40:45;35.00;77.60
44559;DHT22;30270;40.238;18.256;2022-07-29T08:43:13;35.00;77.40
44559;DHT22;30270;40.238;18.256;2022-07-29T08:45:49;35.00;77.40
44559;DHT22;30270;40.238;18.256;2022-07-29T08:48:24;35.00;76.20
44559;DHT22;30270;40.238;18.256;2022-07-29T08:50:56;34.90;74.80
44559;DHT22;30270;40.238;18.256;2022-07-29T08:53:26;34.80;75.10
44559;DHT22;30270;40.238;18.256;2022-07-29T08:55:54;34.90;75.60
44559;DHT22;30270;40.238;18.256;2022-07-29T08:58:23;34.80;74.40
44559;DHT22;30270;40.238;18.256;2022-07-29T09:00:56;35.00;74.70
44559;DHT22;30270;40.238;18.256;2022-07-29T09:03:25;35.00;73.50
44559;DHT22;30270;40.238;18.256;2022-07-29T09:05:54;35.00;73.10
44559;DHT22;30270;40.238;18.256;2022-07-29T09:08:23;35.10;73.90
44559;DHT22;30270;40.238;18.256;2022-07-29T09:10:50;35.30;73.90
44559;DHT22;30270;40.238;18.256;2022-07-29T09:13:19;35.30;73.40
44559;DHT22;30270;40.238;18.256;2022-07-29T09:15:46;35.40;72.70
44559;DHT22;30270;40.238;18.256;2022-07-29T09:18:49;35.50;72.50
44559;DHT22;30270;40.238;18.256;2022-07-29T09:21:17;35.50;72.00
44559;DHT22;30270;40.238;18.256;2022-07-29T09:24:13;35.60;72.50
44559;DHT22;30270;40.238;18.256;2022-07-29T09:26:43;35.60;72.10
44559;DHT22;30270;40.238;18.256;2022-07-29T09:29:13;35.60;71.60
44559;DHT22;30270;40.238;18.256;2022-07-29T09:31:44;35.50;70.90
44559;DHT22;30270;40.238;18.256;2022-07-29T09:34:14;35.60;70.90
44559;DHT22;30270;40.238;18.256;2022-07-29T09:36:45;35.60;71.40
44559;DHT22;30270;40.238;18.256;2022-07-29T09:39:15;35.60;71.40
44559;DHT22;30270;40.238;18.256;2022-07-29T09:41:48;35.70;72.20
44559;DHT22;30270;40.238;18.256;2022-07-29T09:44:16;35.80;72.00
44559;DHT22;30270;40.238;18.256;2022-07-29T09:47:02;35.60;73.20
44559;DHT22;30270;40.238;18.256;2022-07-29T09:52:20;35.50;74.90
44559;DHT22;30270;40.238;18.256;2022-07-29T09:54:48;35.50;75.10
44559;DHT22;30270;40.238;18.256;2022-07-29T09:57:27;35.50;74.70
44559;DHT22;30270;40.238;18.256;2022-07-29T09:59:57;35.50;73.60
44559;DHT22;30270;40.238;18.256;2022-07-29T10:02:34;35.40;74.70
44559;DHT22;30270;40.238;18.256;2022-07-29T10:05:04;35.10;75.90
44559;DHT22;30270;40.238;18.256;2022-07-29T10:07:46;35.00;75.80
44559;DHT22;30270;40.238;18.256;2022-07-29T10:12:56;35.20;73.60
44559;DHT22;30270;40.238;18.256;2022-07-29T10:15:27;35.20;75.30
44559;DHT22;30270;40.238;18.256;2022-07-29T10:17:56;35.30;75.60
44559;DHT22;30270;40.238;18.256;2022-07-29T10:20:25;35.30;73.40
44559;DHT22;30270;40.238;18.256;2022-07-29T10:22:54;35.40;72.50
44559;DHT22;30270;40.238;18.256;2022-07-29T10:25:22;35.40;73.80
44559;DHT22;30270;40.238;18.256;2022-07-29T10:27:51;35.40;73.30
44559;DHT22;30270;40.238;18.256;2022-07-29T10:30:20;35.40;74.30
44559;DHT22;30270;40.238;18.256;2022-07-29T10:41:12;35.40;71.60
44559;DHT22;30270;40.238;18.256;2022-07-29T10:46:27;35.50;71.50
44559;DHT22;30270;40.238;18.256;2022-07-29T10:52:00;35.50;71.20
44559;DHT22;30270;40.238;18.256;2022-07-29T10:54:43;35.30;71.10
44559;DHT22;30270;40.238;18.256;2022-07-29T11:02:42;35.20;71.10
44559;DHT22;30270;40.238;18.256;2022-07-29T11:05:18;35.30;71.90
44559;DHT22;30270;40.238;18.256;2022-07-29T11:10:38;35.30;71.10
44559;DHT22;30270;40.238;18.256;2022-07-29T11:13:06;35.30;71.70
44559;DHT22;30270;40.238;18.256;2022-07-29T11:15:53;35.30;71.40
44559;DHT22;30270;40.238;18.256;2022-07-29T11:18:21;35.30;70.40
44559;DHT22;30270;40.238;18.256;2022-07-29T11:20:50;35.20;70.70
44559;DHT22;30270;40.238;18.256;2022-07-29T11:23:25;35.30;70.80
44559;DHT22;30270;40.238;18.256;2022-07-29T11:26:19;35.20;70.70
44559;DHT22;30270;40.238;18.256;2022-07-29T11:29:04;35.20;71.40
44559;DHT22;30270;40.238;18.256;2022-07-29T11:31:41;35.20;71.00
44559;DHT22;30270;40.238;18.256;2022-07-29T11:45:11;34.90;68.40
44559;DHT22;30270;40.238;18.256;2022-07-29T11:50:15;35.00;69.60
44559;DHT22;30270;40.238;18.256;2022-07-29T11:52:46;35.00;70.10
44559;DHT22;30270;40.238;18.256;2022-07-29T11:55:16;35.00;70.50
44559;DHT22;30270;40.238;18.256;2022-07-29T11:57:49;34.90;70.80
44559;DHT22;30270;40.238;18.256;2022-07-29T12:00:27;34.90;70.40
44559;DHT22;30270;40.238;18.256;2022-07-29T12:02:56;34.90;70.80
44559;DHT22;30270;40.238;18.256;2022-07-29T12:05:44;34.90;71.90
44559;DHT22;30270;40.238;18.256;2022-07-29T12:08:20;34.80;72.60
44559;DHT22;30270;40.238;18.256;2022-07-29T12:10:50;34.80;71.90
44559;DHT22;30270;40.238;18.256;2022-07-29T12:13:19;34.80;71.20
44559;DHT22;30270;40.238;18.256;2022-07-29T12:15:55;34.70;72.40
44559;DHT22;30270;40.238;18.256;2022-07-29T12:18:24;34.70;72.60
44559;DHT22;30270;40.238;18.256;2022-07-29T12:21:02;34.60;72.20
44559;DHT22;30270;40.238;18.256;2022-07-29T12:23:32;34.60;73.30
44559;DHT22;30270;40.238;18.256;2022-07-29T12:26:00;34.60;73.70
44559;DHT22;30270;40.238;18.256;2022-07-29T12:28:28;34.60;74.90
44559;DHT22;30270;40.238;18.256;2022-07-29T12:30:57;34.60;74.30
44559;DHT22;30270;40.238;18.256;2022-07-29T12:33:29;34.50;74.20
44559;DHT22;30270;40.238;18.256;2022-07-29T12:36:00;34.60;74.50
44559;DHT22;30270;40.238;18.256;2022-07-29T12:38:40;34.50;74.00
44559;DHT22;30270;40.238;18.256;2022-07-29T12:41:08;34.40;74.30
44559;DHT22;30270;40.238;18.256;2022-07-29T12:43:36;34.40;74.40
44559;DHT22;30270;40.238;18.256;2022-07-29T12:46:13;34.30;75.00
44559;DHT22;30270;40.238;18.256;2022-07-29T12:48:43;34.30;74.60
44559;DHT22;30270;40.238;18.256;2022-07-29T12:51:11;34.30;74.90
44559;DHT22;30270;40.238;18.256;2022-07-29T12:53:41;34.30;75.00
44559;DHT22;30270;40.238;18.256;2022-07-29T12:56:28;34.30;74.70
44559;DHT22;30270;40.238;18.256;2022-07-29T12:59:17;34.40;74.90
44559;DHT22;30270;40.238;18.256;2022-07-29T13:01:47;34.30;74.80
44559;DHT22;30270;40.238;18.256;2022-07-29T13:04:33;34.30;74.30
44559;DHT22;30270;40.238;18.256;2022-07-29T13:07:06;34.20;73.40
44559;DHT22;30270;40.238;18.256;2022-07-29T13:09:44;34.20;73.70
44559;DHT22;30270;40.238;18.256;2022-07-29T13:12:17;34.20;73.80
44559;DHT22;30270;40.238;18.256;2022-07-29T13:14:48;34.00;72.70
44559;DHT22;30270;40.238;18.256;2022-07-29T13:17:22;34.10;73.60
44559;DHT22;30270;40.238;18.256;2022-07-29T13:20:05;34.10;73.10
44559;DHT22;30270;40.238;18.256;2022-07-29T13:22:34;34.10;73.00
44559;DHT22;30270;40.238;18.256;2022-07-29T13:25:02;34.00;72.90
44559;DHT22;30270;40.238;18.256;2022-07-29T13:27:32;33.90;73.10
44559;DHT22;30270;40.238;18.256;2022-07-29T13:30:03;34.00;73.30
44559;DHT22;30270;40.238;18.256;2022-07-29T13:32:33;34.00;73.20
44559;DHT22;30270;40.238;18.256;2022-07-29T13:35:09;34.10;73.10
44559;DHT22;30270;40.238;18.256;2022-07-29T13:37:40;34.10;72.80
44559;DHT22;30270;40.238;18.256;2022-07-29T13:40:10;34.20;73.10
44559;DHT22;30270;40.238;18.256;2022-07-29T13:42:41;34.20;73.00
44559;DHT22;30270;40.238;18.256;2022-07-29T13:45:10;34.20;73.30
44559;DHT22;30270;40.238;18.256;2022-07-29T13:47:39;34.20;72.60
44559;DHT22;30270;40.238;18.256;2022-07-29T13:50:09;34.20;72.30
44559;DHT22;30270;40.238;18.256;2022-07-29T13:52:38;34.20;72.50
44559;DHT22;30270;40.238;18.256;2022-07-29T13:55:07;34.20;71.60
44559;DHT22;30270;40.238;18.256;2022-07-29T13:57:35;34.10;71.50
44559;DHT22;30270;40.238;18.256;2022-07-29T14:00:03;34.00;71.60
44559;DHT22;30270;40.238;18.256;2022-07-29T14:02:34;34.00;71.50
44559;DHT22;30270;40.238;18.256;2022-07-29T14:05:02;33.90;71.80
44559;DHT22;30270;40.238;18.256;2022-07-29T14:07:32;33.90;72.10
44559;DHT22;30270;40.238;18.256;2022-07-29T14:10:00;33.90;71.80
44559;DHT22;30270;40.238;18.256;2022-07-29T14:12:28;33.90;71.90
44559;DHT22;30270;40.238;18.256;2022-07-29T14:14:56;33.90;72.20
44559;DHT22;30270;40.238;18.256;2022-07-29T14:17:24;33.90;72.30
44559;DHT22;30270;40.238;18.256;2022-07-29T14:19:51;33.80;72.50
44559;DHT22;30270;40.238;18.256;2022-07-29T14:22:19;33.90;72.70
44559;DHT22;30270;40.238;18.256;2022-07-29T14:24:47;33.90;73.20
44559;DHT22;30270;40.238;18.256;2022-07-29T14:27:14;33.90;72.30
44559;DHT22;30270;40.238;18.256;2022-07-29T14:29:42;33.90;72.30
44559;DHT22;30270;40.238;18.256;2022-07-29T14:32:10;33.80;72.50
44559;DHT22;30270;40.238;18.256;2022-07-29T14:34:39;33.60;72.50
44559;DHT22;30270;40.238;18.256;2022-07-29T14:37:06;33.60;72.60
44559;DHT22;30270;40.238;18.256;2022-07-29T14:39:35;33.70;73.70
44559;DHT22;30270;40.238;18.256;2022-07-29T14:42:08;33.60;74.10
44559;DHT22;30270;40.238;18.256;2022-07-29T14:44:36;33.60;74.10
44559;DHT22;30270;40.238;18.256;2022-07-29T14:47:04;33.60;73.50
44559;DHT22;30270;40.238;18.256;2022-07-29T14:49:31;33.60;74.20
44559;DHT22;30270;40.238;18.256;2022-07-29T14:51:59;33.60;74.10
44559;DHT22;30270;40.238;18.256;2022-07-29T14:54:27;33.60;73.30
44559;DHT22;30270;40.238;18.256;2022-07-29T14:56:54;33.70;74.00
44559;DHT22;30270;40.238;18.256;2022-07-29T14:59:25;33.60;75.40
44559;DHT22;30270;40.238;18.256;2022-07-29T15:01:53;33.60;74.80
44559;DHT22;30270;40.238;18.256;2022-07-29T15:04:20;33.60;74.30
44559;DHT22;30270;40.238;18.256;2022-07-29T15:06:48;33.60;75.00
44559;DHT22;30270;40.238;18.256;2022-07-29T15:09:16;33.60;75.40
44559;DHT22;30270;40.238;18.256;2022-07-29T15:11:44;33.50;76.10
44559;DHT22;30270;40.238;18.256;2022-07-29T15:14:12;33.60;75.10
44559;DHT22;30270;40.238;18.256;2022-07-29T15:16:39;33.60;74.70
44559;DHT22;30270;40.238;18.256;2022-07-29T15:19:09;33.60;74.40
44559;DHT22;30270;40.238;18.256;2022-07-29T15:21:37;33.50;75.00
44559;DHT22;30270;40.238;18.256;2022-07-29T15:24:05;33.50;75.40
44559;DHT22;30270;40.238;18.256;2022-07-29T15:26:34;33.30;76.50
44559;DHT22;30270;40.238;18.256;2022-07-29T15:29:02;33.30;77.60
44559;DHT22;30270;40.238;18.256;2022-07-29T15:31:32;33.40;77.50
44559;DHT22;30270;40.238;18.256;2022-07-29T15:34:00;33.30;75.60
44559;DHT22;30270;40.238;18.256;2022-07-29T15:36:31;33.40;75.60
44559;DHT22;30270;40.238;18.256;2022-07-29T15:39:19;33.30;76.10
44559;DHT22;30270;40.238;18.256;2022-07-29T15:41:49;33.20;79.30
44559;DHT22;30270;40.238;18.256;2022-07-29T15:44:17;33.20;79.80
44559;DHT22;30270;40.238;18.256;2022-07-29T15:46:45;33.20;79.60
44559;DHT22;30270;40.238;18.256;2022-07-29T15:49:31;33.10;79.50
44559;DHT22;30270;40.238;18.256;2022-07-29T15:52:01;33.10;79.20
44559;DHT22;30270;40.238;18.256;2022-07-29T15:54:30;33.10;78.50
44559;DHT22;30270;40.238;18.256;2022-07-29T15:56:58;33.10;78.10
44559;DHT22;30270;40.238;18.256;2022-07-29T15:59:26;33.00;77.40
44559;DHT22;30270;40.238;18.256;2022-07-29T16:01:53;33.00;77.60
44559;DHT22;30270;40.238;18.256;2022-07-29T16:04:21;32.90;76.70
44559;DHT22;30270;40.238;18.256;2022-07-29T16:06:49;32.90;76.00
44559;DHT22;30270;40.238;18.256;2022-07-29T16:09:17;32.90;75.60
44559;DHT22;30270;40.238;18.256;2022-07-29T16:11:45;32.90;74.60
44559;DHT22;30270;40.238;18.256;2022-07-29T16:14:15;32.90;75.10
44559;DHT22;30270;40.238;18.256;2022-07-29T16:16:43;33.00;75.20
44559;DHT22;30270;40.238;18.256;2022-07-29T16:19:11;33.00;75.80
44559;DHT22;30270;40.238;18.256;2022-07-29T16:21:38;32.90;75.80
44559;DHT22;30270;40.238;18.256;2022-07-29T16:24:06;32.90;74.00
44559;DHT22;30270;40.238;18.256;2022-07-29T16:26:35;32.80;73.70
44559;DHT22;30270;40.238;18.256;2022-07-29T16:29:03;32.70;73.20